Time;durP1;ratioP1;P1;durP2;ratioP2;P2;SDS_P1;SDS_P2;PMS_P1;PMS_P2;Temp;Humidity;BMP_temperature;BMP_pressure;BME280_temperature;BME280_humidity;BME280_pressure;Samples;Min_cycle;Max_cycle;Signal;HPM_P1;HPM_P2
2023/01/05 07:04:26;;;;;;;;;;;;;;;;;;;;;
2023/01/05 09:16:22;;;;;;;37.22;5.13;;;9.20;99.90;;;;;;5969441;24;20030;-94
2023/01/05 09:22:17;;;;;;;36.35;4.85;;;9.00;99.90;;;;;;6369353;22;20033;-96
2023/01/05 17:44:22;;;;;;;;;;;;;;;;;;;;;
2023/01/05 17:46:59;;;;;;;26.60;4.78;;;8.60;99.90;;;;;;6241827;22;20028;-93
2023/01/05 17:49:46;;;;;;;44.65;6.13;;;8.70;99.90;;;;;;6217499;22;20023;-93
2023/01/05 17:52:16;;;;;;;40.40;6.63;;;8.60;99.90;;;;;;6216849;22;20518;-94
2023/01/05 17:55:25;;;;;;;45.80;6.30;;;8.60;99.90;;;;;;6216822;22;20431;-94
2023/01/05 17:58:13;;;;;;;;;;;;;;;;;;;;;
2023/01/05 18:00:57;;;;;;;40.70;6.15;;;8.50;99.90;;;;;;6268627;22;20020;-94
2023/01/05 18:04:31;;;;;;;41.20;6.55;;;8.70;99.90;;;;;;6216839;22;20016;-94
2023/01/05 18:06:52;;;;;;;47.92;7.18;;;8.70;99.90;;;;;;6233482;22;20046;-93
2023/01/05 18:09:18;;;;;;;38.10;6.30;;;8.60;99.90;;;;;;6215904;22;20091;-94
2023/01/05 18:11:51;;;;;;;46.97;6.63;;;8.60;99.90;;;;;;6216473;22;20463;-95
2023/01/05 18:14:30;;;;;;;42.13;5.90;;;8.70;99.90;;;;;;6217802;22;20016;-95
2023/01/05 18:17:03;;;;;;;40.95;5.72;;;8.70;99.90;;;;;;6216878;22;20076;-96
2023/01/05 18:19:34;;;;;;;47.65;6.47;;;8.70;99.90;;;;;;6217318;22;20019;-96
2023/01/05 18:22:05;;;;;;;50.53;7.20;;;8.70;99.90;;;;;;6216127;22;20019;-93
2023/01/05 18:25:03;;;;;;;49.97;6.90;;;8.70;99.90;;;;;;6216600;22;20015;-93
2023/01/05 18:27:35;;;;;;;50.17;7.30;;;8.70;99.90;;;;;;6215765;22;20020;-94
2023/01/05 18:30:02;;;;;;;49.38;6.65;;;8.80;99.90;;;;;;6216125;22;20019;-94
2023/01/05 18:32:41;;;;;;;;;;;;;;;;;;;;;
2023/01/05 18:36:36;;;;;;;59.92;6.68;;;8.70;99.90;;;;;;6238866;22;20093;-92
2023/01/05 18:39:19;;;;;;;48.58;7.68;;;8.50;99.90;;;;;;6250076;22;20028;-93
2023/01/05 18:42:09;;;;;;;;;;;;;;;;;;;;;
2023/01/05 18:44:40;;;;;;;42.00;7.05;;;8.70;99.90;;;;;;6396178;22;20463;-96
2023/01/05 18:47:05;;;;;;;53.22;8.85;;;8.80;99.90;;;;;;6370073;22;20018;-92
2023/01/05 18:50:07;;;;;;;;;;;;;;;;;;;;;
2023/01/05 18:53:18;;;;;;;;;;;;;;;;;;;;;
2023/01/05 18:59:45;;;;;;;;;;;;;;;;;;;;;
2023/01/05 19:02:56;;;;;;;;;;;;;;;;;;;;;
2023/01/05 19:05:24;;;;;;;56.35;8.25;;;8.20;99.90;;;;;;6315157;22;20456;-93
2023/01/05 19:08:23;;;;;;;46.92;8.10;;;8.60;99.90;;;;;;6372145;22;20046;-95
2023/01/05 19:11:19;;;;;;;46.38;8.50;;;8.70;99.90;;;;;;6372063;22;20018;-95
2023/01/05 19:14:12;;;;;;;66.05;8.80;;;8.70;99.90;;;;;;6371950;22;20093;-96
2023/01/05 19:16:58;;;;;;;52.83;8.10;;;8.80;99.90;;;;;;6372324;22;20341;-95
2023/01/05 19:19:41;;;;;;;48.65;9.90;;;8.70;99.90;;;;;;6369933;22;20014;-95
2023/01/05 19:22:13;;;;;;;54.47;8.50;;;8.80;99.90;;;;;;6372606;22;20014;-96
2023/01/05 19:25:28;;;;;;;74.72;10.40;;;8.70;99.90;;;;;;6372571;22;20239;-95
2023/01/05 19:27:43;;;;;;;61.85;10.25;;;8.70;99.90;;;;;;6387624;22;20132;-95
2023/01/05 19:30:28;;;;;;;;;;;;;;;;;;;;;
2023/01/05 19:33:12;;;;;;;60.40;13.10;;;8.70;99.90;;;;;;6397053;22;20408;-95
2023/01/05 19:35:59;;;;;;;;;;;;;;;;;;;;;
2023/01/05 19:38:44;;;;;;;67.43;12.95;;;8.70;99.90;;;;;;6399553;22;20113;-93
2023/01/05 19:41:29;;;;;;;;;;;;;;;;;;;;;
2023/01/05 19:43:59;;;;;;;67.97;12.60;;;8.70;99.90;;;;;;6375920;22;20066;-94
2023/01/05 19:46:47;;;;;;;;;;;;;;;;;;;;;
2023/01/05 19:49:20;;;;;;;48.30;11.30;;;8.80;99.90;;;;;;6376742;22;20642;-95
2023/01/05 19:51:51;;;;;;;46.30;13.18;;;8.70;99.90;;;;;;6349474;22;20050;-95
2023/01/05 19:54:22;;;;;;;50.33;12.93;;;8.80;99.90;;;;;;6350482;22;20099;-95
2023/01/05 19:56:49;;;;;;;37.40;12.05;;;8.70;99.90;;;;;;6349534;22;20024;-93
2023/01/05 19:59:20;;;;;;;45.58;12.73;;;8.70;99.90;;;;;;6349659;22;20023;-92
2023/01/05 20:01:47;;;;;;;45.05;12.95;;;8.70;99.90;;;;;;6350326;22;20470;-94
2023/01/05 20:04:13;;;;;;;45.72;13.00;;;8.70;99.90;;;;;;6350447;22;20427;-95
2023/01/05 20:06:45;;;;;;;46.50;15.15;;;8.80;99.90;;;;;;6349765;22;20026;-94
2023/01/05 20:09:14;;;;;;;41.40;12.80;;;8.90;99.90;;;;;;6350082;22;20011;-95
2023/01/05 20:11:59;;;;;;;43.20;13.65;;;8.80;99.90;;;;;;6350494;22;20051;-94
2023/01/05 20:14:34;;;;;;;47.20;12.57;;;8.90;99.90;;;;;;6350430;22;20019;-93
2023/01/05 20:17:06;;;;;;;36.97;11.90;;;8.80;99.90;;;;;;6349013;22;20084;-94
2023/01/05 20:19:34;;;;;;;42.15;13.35;;;8.90;99.90;;;;;;6347959;22;20173;-96
2023/01/05 20:22:02;;;;;;;46.00;13.35;;;8.80;99.90;;;;;;6349212;22;20024;-96
2023/01/05 20:24:30;;;;;;;51.08;13.77;;;8.80;99.90;;;;;;6350183;22;20093;-96
2023/01/05 20:26:59;;;;;;;43.17;13.90;;;8.80;99.90;;;;;;6349249;22;20024;-95
2023/01/05 20:29:25;;;;;;;35.15;13.32;;;8.80;99.90;;;;;;6349582;22;20027;-95
2023/01/05 20:31:55;;;;;;;45.60;15.00;;;8.90;99.90;;;;;;6348235;22;20012;-95
2023/01/05 20:34:28;;;;;;;42.20;14.18;;;8.90;99.90;;;;;;6349061;22;20324;-95
2023/01/05 20:36:54;;;;;;;43.60;14.20;;;9.00;99.90;;;;;;6350096;22;20008;-95
2023/01/05 20:39:21;;;;;;;45.15;15.02;;;9.30;99.90;;;;;;6349721;22;20734;-94
2023/01/05 20:41:51;;;;;;;44.75;14.88;;;8.90;99.90;;;;;;6315219;22;20027;-94
2023/01/05 20:44:25;;;;;;;49.63;15.95;;;9.00;99.90;;;;;;6349922;22;20051;-93
2023/01/05 20:47:02;;;;;;;48.30;17.10;;;9.10;99.90;;;;;;6345957;22;20020;-93
2023/01/05 20:49:48;;;;;;;;;;;;;;;;;;;;;
2023/01/05 20:52:36;;;;;;;;;;;;;;;;;;;;;
2023/01/05 20:56:15;;;;;;;;;;;;;;;;;;;;;
2023/01/05 20:59:07;;;;;;;46.42;16.10;;;9.10;99.90;;;;;;6292578;22;20019;-93
2023/01/05 21:01:49;;;;;;;53.42;15.88;;;9.20;99.90;;;;;;6335241;22;20098;-93
2023/01/05 21:04:24;;;;;;;43.55;16.30;;;9.10;99.90;;;;;;6348159;22;20012;-95
2023/01/05 21:07:02;;;;;;;55.75;17.30;;;9.10;99.90;;;;;;6348633;22;20023;-93
2023/01/05 21:09:43;;;;;;;;;;;;;;;;;;;;;
2023/01/05 21:15:28;;;;;;;;;;;;;;;;;;;;;
2023/01/05 21:19:22;;;;;;;55.65;19.95;;;9.10;99.90;;;;;;6267532;22;20023;-94
2023/01/05 21:29:36;;;;;;;51.38;19.20;;;9.40;99.90;;;;;;6323172;22;20027;-94
2023/01/05 21:32:47;;;;;;;;;;;;;;;;;;;;;
2023/01/05 21:39:20;;;;;;;;;;;;;;;;;;;;;
2023/01/05 21:45:33;;;;;;;53.05;21.15;;;9.30;99.90;;;;;;6373877;22;20020;-92
2023/01/05 21:48:25;;;;;;;50.05;20.73;;;9.30;99.90;;;;;;6347505;22;20064;-92
2023/01/05 21:58:12;;;;;;;45.97;21.13;;;9.50;99.90;;;;;;6266493;22;20028;-92
2023/01/05 22:10:46;;;;;;;;;;;;;;;;;;;;;
2023/01/05 22:13:18;;;;;;;48.47;22.48;;;9.60;99.90;;;;;;6369820;22;20099;-93
2023/01/05 22:15:57;;;;;;;;;;;;;;;;;;;;;
2023/01/05 22:18:51;;;;;;;52.42;23.20;;;9.70;99.90;;;;;;6373675;22;20103;-93
2023/01/05 22:21:30;;;;;;;;;;;;;;;;;;;;;
2023/01/05 22:24:37;;;;;;;;;;;;;;;;;;;;;
2023/01/05 22:27:49;;;;;;;;;;;;;;;;;;;;;
2023/01/05 22:30:30;;;;;;;53.17;26.00;;;9.60;99.90;;;;;;6268745;22;20019;-92
2023/01/05 22:33:24;;;;;;;;;;;;;;;;;;;;;
2023/01/05 22:36:33;;;;;;;57.95;26.85;;;9.60;99.90;;;;;;6374946;22;20126;-93
2023/01/05 22:39:15;;;;;;;64.65;26.85;;;9.80;99.90;;;;;;6265924;22;20019;-94
2023/01/05 22:46:02;;;;;;;;;;;;;;;;;;;;;
2023/01/05 22:48:52;;;;;;;;;;;;;;;;;;;;;
2023/01/05 22:52:07;;;;;;;;;;;;;;;;;;;;;
2023/01/05 22:54:45;;;;;;;;;;;;;;;;;;;;;
2023/01/05 22:57:44;;;;;;;;;;;;;;;;;;;;;
2023/01/05 23:01:22;;;;;;;60.28;27.08;;;9.80;99.90;;;;;;6265315;22;20023;-94
2023/01/05 23:07:04;;;;;;;57.53;25.40;;;9.80;99.90;;;;;;6335382;22;20020;-91
2023/01/05 23:10:29;;;;;;;;;;;;;;;;;;;;;
2023/01/05 23:13:46;;;;;;;61.45;23.80;;;9.20;99.90;;;;;;6266738;22;20081;-91
2023/01/05 23:16:36;;;;;;;51.53;23.42;;;9.80;99.90;;;;;;6237862;22;20016;-91
2023/01/05 23:19:51;;;;;;;65.38;24.70;;;10.00;99.90;;;;;;6347558;22;20098;-90
2023/01/05 23:28:26;;;;;;;53.20;22.48;;;10.30;99.90;;;;;;6371715;22;20039;-90
2023/01/05 23:31:17;;;;;;;39.08;18.95;;;10.00;99.90;;;;;;6346832;22;20055;-90
2023/01/05 23:34:29;;;;;;;42.30;15.85;;;10.00;99.90;;;;;;6347821;22;20012;-90
2023/01/05 23:36:32;;;;;;;47.88;17.95;;;9.80;99.90;;;;;;6354473;22;20023;-90
2023/01/05 23:39:37;;;;;;;46.30;17.65;;;10.00;99.90;;;;;;6366888;22;20024;-90
2023/01/05 23:45:19;;;;;;;36.53;14.80;;;9.50;99.90;;;;;;6270240;22;20038;-90
2023/01/05 23:51:30;;;;;;;49.25;17.33;;;9.30;99.90;;;;;;6219033;22;20487;-90
2023/01/05 23:54:37;;;;;;;44.58;15.60;;;10.00;99.90;;;;;;6243752;22;20055;-90
2023/01/05 23:57:11;;;;;;;37.00;13.93;;;9.60;99.90;;;;;;6328680;22;20051;-90
